気象予報士の航空気象 気温が朝から右肩下がり!

*All archives   *Admin

スポンサーサイト

上記の広告は1ヶ月以上更新のないブログに表示されています。
新しい記事を書く事で広告が消せます。
--:--  |  スポンサー広告  |  EDIT  |  Top↑

2010.04.07 (Wed)

気温が朝から右肩下がり!

070300Z 04015KT 9999 FEW015 BKN020 13/06 Q1011 WS R34L RMK 1CU015 7SC020 A2987

070330Z 05015KT 9999 -RA FEW015 BKN025 12/07 Q1011 RMK 1CU015 7SC025 A2987

070400Z 05016KT 9999 -RA FEW015 BKN030 12/06 Q1012 RMK 1CU015 7SC030 A2989

070430Z 06017KT 9999 -RA FEW020 BKN030 11/07 Q1011 RMK 1CU020 7SC030 A2987

070500Z 07016KT 6000 -RA FEW020 BKN030 10/07 Q1011 RMK 1CU020 7SC030 A2988 MOD TURB BTN 15000 AND 13000FT 10NM N AMI BY B767 AT 0433

070513Z 07018KT 5000 -RA BR FEW020 BKN030 10/07 Q1012 RMK 1CU020 7SC030 A2989

070518Z 06017KT 3800 RA BR FEW012 BKN030 10/07 Q1012 RMK 1CU012 7SC030 A2989

070530Z 07015KT 6000 -RA FEW012 BKN030 09/07 Q1012 RMK 2CU012 7SC030 A2990

070538Z 07016KT 4500 -RA BR FEW010 BKN025 09/07 Q1012 RMK 2ST010 7SC025 A2989

070544Z 08018KT 4500 RA BR FEW010 BKN025 09/07 Q1012 RMK 2ST010 7SC025 A2989

070600Z 07018KT 6000 R34L/P1800N R22///// R34R/P1800N -SHRA FEW010 SCT015 BKN025 09/07 Q1012 RMK 1ST010 3CU015 6SC025 A2989 MOD TURB BTN 10000 AND 13000FT 10NM S MORIYA BY A320 AT 0546


 羽田空港の午後0時から3時の時系列METARです。


大陸出身の移動性高気圧が寒気を伴って日本に近づいています。


風の場は北東。冷えて、視程が悪くなる風の方向です。


どんどん気温が下がり、一桁まで落ちました。


 昨日は20度まで上昇した関東地方も今日は凍えています。


しかも、今日の最高気温は未明に記録しています。


 時間をさかのぼって、午前0時から3時までの時系列。


061500Z 22009KT CAVOK 16/10 Q1010 RMK A2983

061530Z 23011KT CAVOK 16/10 Q1009 RMK A2982

061600Z 21014KT CAVOK 17/10 Q1009 RMK A2982

061630Z 21016KT 9999 FEW030 BKN/// 17/10 Q1009 RMK 1CU030 A2981

061700Z 22015KT CAVOK 17/11 Q1009 RMK A2980

061730Z 21015KT CAVOK 17/11 Q1008 RMK A2978

061800Z 22018KT CAVOK 18/11 Q1008 RMK A2978


快晴の夜、南西風が吹き込み、ぐんぐん気温が上昇。


なんと、午前3時に18度。これが最高です。


 夜中に気温が上がることはめったにありません。


風が持ち込んだ温度移流が放射する熱量をうわまわった結果です。


 午前5時ごろ南西風から北西風に変わり、前線が通過して気温が少し低下。


その後、北東風に変わり、さらに気温が低下した一日でした。


その後、関東の南西に存在する低気圧が接近したことにより、北東風の気圧配置なったようです。


関東は北東風がよく吹きますが、このメカニズムについて研究してみたくなるMETARの時系列ですね。

 


ブログランキングに参加しています。
にほんブログ村 環境ブログ 天気・気象学へ
にほんブログ村
応援クリックをおねがします。


以下、アフィリエイトサイトです。




スポンサーサイト
19:52  |  気象・天気  |  TB(0)  |  CM(0)  |  EDIT  |  Top↑

コメントを投稿する


 管理者だけに表示  (非公開コメント投稿可能)

▲PageTop

この記事のトラックバックURL

→http://weathereucalyptus.blog115.fc2.com/tb.php/447-cee41fdc
この記事にトラックバックする(FC2ブログユーザー)

この記事へのトラックバック

▲PageTop

 | BLOGTOP | 
上記広告は1ヶ月以上更新のないブログに表示されています。新しい記事を書くことで広告を消せます。